createdAt,value
2023-02-24T00:07:45.088Z,56.20
2023-02-24T00:17:48.663Z,57.57
2023-02-24T00:27:56.030Z,58.37
2023-02-24T00:38:01.484Z,58.59
2023-02-24T00:48:10.901Z,58.88
2023-02-24T00:58:14.600Z,59.35
2023-02-24T01:08:21.924Z,59.60
2023-02-24T01:18:28.243Z,59.94
2023-02-24T01:28:31.901Z,59.87
2023-02-24T01:38:43.032Z,59.83
2023-02-24T01:48:48.003Z,60.03
2023-02-24T01:58:54.497Z,60.19
2023-02-24T02:08:58.824Z,60.52
2023-02-24T02:19:26.480Z,60.60
2023-02-24T02:30:02.037Z,60.78
2023-02-24T02:40:22.594Z,61.06
2023-02-24T02:51:04.445Z,61.68
2023-02-24T03:01:18.645Z,62.62
2023-02-24T03:11:24.307Z,63.92
2023-02-24T03:21:39.405Z,64.85
2023-02-24T03:32:09.383Z,65.56
2023-02-24T03:42:19.225Z,66.30
2023-02-24T03:52:29.441Z,66.75
2023-02-24T04:02:38.200Z,67.19
2023-02-24T04:13:02.384Z,67.13
2023-02-24T04:23:14.460Z,67.32
2023-02-24T04:33:18.662Z,67.89
2023-02-24T04:43:22.659Z,68.22
2023-02-24T04:53:30.585Z,68.37
2023-02-24T05:03:37.162Z,68.64
2023-02-24T05:13:40.741Z,68.68
2023-02-24T05:23:47.017Z,68.83
2023-02-24T05:33:59.238Z,68.66
2023-02-24T05:44:12.618Z,68.81
2023-02-24T05:54:23.063Z,68.68
2023-02-24T06:04:46.033Z,68.28
2023-02-24T06:14:53.296Z,68.13
2023-02-24T06:24:58.722Z,68.25
2023-02-24T06:35:04.252Z,68.24
2023-02-24T06:45:09.473Z,68.17
2023-02-24T06:55:28.233Z,68.13
2023-02-24T07:05:34.478Z,67.81
2023-02-24T07:15:40.184Z,67.67
2023-02-24T07:25:46.535Z,67.29
2023-02-24T07:35:52.724Z,66.94
2023-02-24T07:46:01.227Z,66.98
2023-02-24T07:56:16.188Z,67.02
2023-02-24T08:06:39.280Z,66.90
2023-02-24T08:16:50.893Z,66.90
2023-02-24T08:27:06.430Z,66.99
2023-02-24T08:37:15.946Z,66.82
2023-02-24T08:47:21.374Z,66.78
2023-02-24T08:57:27.084Z,66.31
2023-02-24T09:07:41.662Z,65.44
2023-02-24T09:17:46.007Z,64.96
2023-02-24T09:28:17.878Z,64.01
2023-02-24T09:38:42.965Z,63.67
2023-02-24T09:49:05.492Z,62.93
2023-02-24T09:59:27.347Z,62.28
2023-02-24T10:09:42.546Z,62.44
2023-02-24T10:19:46.241Z,62.06
2023-02-24T10:30:19.952Z,61.84
2023-02-24T10:40:46.358Z,61.85
2023-02-24T10:51:08.600Z,61.74
2023-02-24T11:01:21.551Z,61.83
2023-02-24T11:11:55.886Z,61.76
2023-02-24T11:22:00.251Z,62.02
2023-02-24T11:33:01.623Z,62.40
2023-02-24T11:43:14.099Z,62.49
2023-02-24T11:53:20.718Z,63.25
2023-02-24T12:03:47.506Z,64.00
2023-02-24T12:14:00.239Z,64.58
2023-02-24T12:24:08.989Z,65.00
2023-02-24T12:34:23.531Z,64.82
2023-02-24T12:44:46.286Z,64.69
2023-02-24T12:55:23.215Z,65.53
2023-02-24T13:05:44.688Z,65.61
2023-02-24T13:15:59.203Z,64.44
2023-02-24T13:26:03.917Z,63.98
2023-02-24T13:36:11.061Z,63.90
2023-02-24T13:46:21.385Z,63.35
2023-02-24T13:56:43.006Z,62.48
2023-02-24T14:06:54.268Z,61.53
2023-02-24T14:16:57.915Z,60.55
2023-02-24T14:27:05.362Z,59.37
2023-02-24T14:37:17.470Z,58.42
2023-02-24T14:47:24.495Z,57.94
2023-02-24T14:57:37.498Z,57.64
2023-02-24T15:07:47.657Z,57.48
2023-02-24T15:18:04.434Z,57.70
2023-02-24T15:28:25.246Z,57.87
2023-02-24T15:38:36.211Z,57.78
2023-02-24T15:48:42.998Z,57.79
2023-02-24T15:58:48.268Z,57.27
2023-02-24T16:09:00.208Z,56.72
2023-02-24T16:19:04.766Z,56.48
2023-02-24T16:29:14.431Z,56.70
2023-02-24T16:39:18.316Z,56.98
2023-02-24T16:49:22.783Z,56.99
2023-02-24T16:59:30.462Z,56.89
2023-02-24T17:09:34.577Z,57.32
2023-02-24T17:19:38.854Z,57.00
2023-02-24T17:29:42.376Z,57.21
2023-02-24T17:39:45.931Z,57.05
2023-02-24T17:49:51.547Z,56.60
2023-02-24T17:59:55.827Z,56.79
2023-02-24T18:10:00.002Z,57.72
2023-02-24T18:20:05.282Z,57.86
2023-02-24T18:30:11.095Z,58.29
2023-02-24T18:40:15.730Z,58.10
2023-02-24T18:50:20.813Z,58.09
2023-02-24T19:00:26.220Z,57.75
2023-02-24T19:10:31.687Z,57.92
2023-02-24T19:20:35.380Z,58.48
2023-02-24T19:30:40.238Z,58.54
2023-02-24T19:40:45.072Z,58.24
2023-02-24T19:50:48.760Z,58.13
2023-02-24T20:00:52.463Z,57.84
2023-02-24T20:11:00.938Z,57.92
2023-02-24T20:21:05.200Z,57.79
2023-02-24T20:31:18.776Z,58.02
2023-02-24T20:41:22.540Z,58.03
2023-02-24T20:51:27.442Z,58.06
2023-02-24T21:01:37.185Z,57.87
2023-02-24T21:11:43.701Z,57.83
2023-02-24T21:21:48.954Z,57.73
2023-02-24T21:31:52.931Z,57.37
2023-02-24T21:41:56.805Z,57.65
2023-02-24T21:52:00.978Z,57.47
2023-02-24T22:02:04.674Z,57.50
2023-02-24T22:12:08.580Z,57.77
2023-02-24T22:22:12.207Z,57.65
2023-02-24T22:32:15.930Z,57.28
2023-02-24T22:42:19.495Z,56.94
2023-02-24T22:52:23.075Z,57.21
2023-02-24T23:02:27.614Z,57.18
2023-02-24T23:12:33.298Z,57.20
2023-02-24T23:22:36.850Z,56.82
2023-02-24T23:32:45.308Z,56.83
2023-02-24T23:42:48.933Z,56.74
2023-02-24T23:52:54.618Z,56.85
